sensor_id;sensor_type;location;lat;lon;timestamp;P1;durP1;ratioP1;P2;durP2;ratioP2
5869;SDS011;2961;47.702;9.410;2022-11-24T00:01:12;0.60;;;0.60;;
5869;SDS011;2961;47.702;9.410;2022-11-24T00:03:40;0.60;;;0.60;;
5869;SDS011;2961;47.702;9.410;2022-11-24T00:06:09;2.07;;;0.70;;
5869;SDS011;2961;47.702;9.410;2022-11-24T00:08:38;5.60;;;1.27;;
5869;SDS011;2961;47.702;9.410;2022-11-24T00:11:07;2.60;;;1.30;;
5869;SDS011;2961;47.702;9.410;2022-11-24T00:13:36;0.57;;;0.57;;
5869;SDS011;2961;47.702;9.410;2022-11-24T00:16:05;1.90;;;0.70;;
5869;SDS011;2961;47.702;9.410;2022-11-24T00:18:33;2.73;;;0.60;;
5869;SDS011;2961;47.702;9.410;2022-11-24T00:20:59;1.70;;;0.60;;
5869;SDS011;2961;47.702;9.410;2022-11-24T00:23:28;4.27;;;1.23;;
5869;SDS011;2961;47.702;9.410;2022-11-24T00:25:55;1.33;;;0.90;;
5869;SDS011;2961;47.702;9.410;2022-11-24T00:28:28;5.53;;;3.07;;
5869;SDS011;2961;47.702;9.410;2022-11-24T00:30:55;2.30;;;1.53;;
5869;SDS011;2961;47.702;9.410;2022-11-24T00:33:22;2.00;;;1.60;;
5869;SDS011;2961;47.702;9.410;2022-11-24T00:35:52;2.00;;;1.00;;
5869;SDS011;2961;47.702;9.410;2022-11-24T00:38:20;1.60;;;1.00;;
5869;SDS011;2961;47.702;9.410;2022-11-24T00:40:48;1.17;;;1.07;;
5869;SDS011;2961;47.702;9.410;2022-11-24T00:43:15;2.07;;;0.80;;
5869;SDS011;2961;47.702;9.410;2022-11-24T00:45:42;1.10;;;1.00;;
5869;SDS011;2961;47.702;9.410;2022-11-24T00:48:09;2.53;;;1.27;;
5869;SDS011;2961;47.702;9.410;2022-11-24T00:50:35;5.47;;;3.20;;
5869;SDS011;2961;47.702;9.410;2022-11-24T00:53:02;3.37;;;2.80;;
5869;SDS011;2961;47.702;9.410;2022-11-24T00:55:29;2.63;;;1.73;;
5869;SDS011;2961;47.702;9.410;2022-11-24T00:57:57;3.60;;;2.27;;
5869;SDS011;2961;47.702;9.410;2022-11-24T01:00:24;3.30;;;2.80;;
5869;SDS011;2961;47.702;9.410;2022-11-24T01:02:51;3.83;;;2.90;;
5869;SDS011;2961;47.702;9.410;2022-11-24T01:05:18;3.93;;;1.80;;
5869;SDS011;2961;47.702;9.410;2022-11-24T01:07:45;6.40;;;1.70;;
5869;SDS011;2961;47.702;9.410;2022-11-24T01:10:11;2.00;;;1.40;;
5869;SDS011;2961;47.702;9.410;2022-11-24T01:12:38;3.90;;;1.50;;
5869;SDS011;2961;47.702;9.410;2022-11-24T01:15:07;1.07;;;1.07;;
5869;SDS011;2961;47.702;9.410;2022-11-24T01:17:34;3.37;;;1.00;;
5869;SDS011;2961;47.702;9.410;2022-11-24T01:20:01;5.40;;;1.33;;
5869;SDS011;2961;47.702;9.410;2022-11-24T01:22:28;3.23;;;1.60;;
5869;SDS011;2961;47.702;9.410;2022-11-24T01:24:56;7.20;;;3.70;;
5869;SDS011;2961;47.702;9.410;2022-11-24T01:27:23;4.33;;;2.17;;
5869;SDS011;2961;47.702;9.410;2022-11-24T01:29:49;6.10;;;1.50;;
5869;SDS011;2961;47.702;9.410;2022-11-24T01:32:18;9.10;;;1.73;;
5869;SDS011;2961;47.702;9.410;2022-11-24T01:34:44;2.50;;;1.60;;
5869;SDS011;2961;47.702;9.410;2022-11-24T01:37:11;3.57;;;1.30;;
5869;SDS011;2961;47.702;9.410;2022-11-24T01:39:38;2.60;;;1.20;;
5869;SDS011;2961;47.702;9.410;2022-11-24T01:42:05;1.70;;;1.60;;
5869;SDS011;2961;47.702;9.410;2022-11-24T01:44:31;1.40;;;1.00;;
5869;SDS011;2961;47.702;9.410;2022-11-24T01:46:59;3.23;;;1.70;;
5869;SDS011;2961;47.702;9.410;2022-11-24T01:49:33;1.63;;;1.30;;
5869;SDS011;2961;47.702;9.410;2022-11-24T01:52:05;3.73;;;1.27;;
5869;SDS011;2961;47.702;9.410;2022-11-24T01:54:36;2.50;;;1.10;;
5869;SDS011;2961;47.702;9.410;2022-11-24T01:57:07;2.97;;;1.27;;
5869;SDS011;2961;47.702;9.410;2022-11-24T01:59:39;2.83;;;1.10;;
5869;SDS011;2961;47.702;9.410;2022-11-24T02:02:05;2.10;;;0.97;;
5869;SDS011;2961;47.702;9.410;2022-11-24T02:04:35;2.97;;;0.97;;
5869;SDS011;2961;47.702;9.410;2022-11-24T02:07:02;5.90;;;1.40;;
5869;SDS011;2961;47.702;9.410;2022-11-24T02:09:33;6.20;;;1.47;;
5869;SDS011;2961;47.702;9.410;2022-11-24T02:12:05;2.00;;;1.03;;
5869;SDS011;2961;47.702;9.410;2022-11-24T02:14:33;3.80;;;1.37;;
5869;SDS011;2961;47.702;9.410;2022-11-24T02:17:01;2.90;;;1.30;;
5869;SDS011;2961;47.702;9.410;2022-11-24T02:19:35;3.27;;;1.67;;
5869;SDS011;2961;47.702;9.410;2022-11-24T02:22:11;2.53;;;1.60;;
5869;SDS011;2961;47.702;9.410;2022-11-24T02:24:45;5.70;;;1.23;;
5869;SDS011;2961;47.702;9.410;2022-11-24T02:27:16;4.73;;;1.70;;
5869;SDS011;2961;47.702;9.410;2022-11-24T02:29:44;2.57;;;1.57;;
5869;SDS011;2961;47.702;9.410;2022-11-24T02:32:11;2.10;;;1.47;;
5869;SDS011;2961;47.702;9.410;2022-11-24T02:34:39;1.90;;;1.80;;
5869;SDS011;2961;47.702;9.410;2022-11-24T02:37:05;2.73;;;1.53;;
5869;SDS011;2961;47.702;9.410;2022-11-24T02:39:32;4.47;;;1.93;;
5869;SDS011;2961;47.702;9.410;2022-11-24T02:42:00;5.87;;;2.00;;
5869;SDS011;2961;47.702;9.410;2022-11-24T02:44:33;2.93;;;1.53;;
5869;SDS011;2961;47.702;9.410;2022-11-24T02:47:05;6.03;;;2.77;;
5869;SDS011;2961;47.702;9.410;2022-11-24T02:49:32;4.80;;;1.77;;
5869;SDS011;2961;47.702;9.410;2022-11-24T02:51:59;4.43;;;1.80;;
5869;SDS011;2961;47.702;9.410;2022-11-24T02:54:26;3.70;;;1.90;;
5869;SDS011;2961;47.702;9.410;2022-11-24T02:56:53;5.83;;;1.60;;
5869;SDS011;2961;47.702;9.410;2022-11-24T02:59:20;12.17;;;2.27;;
5869;SDS011;2961;47.702;9.410;2022-11-24T03:01:48;9.87;;;1.70;;
5869;SDS011;2961;47.702;9.410;2022-11-24T03:04:15;2.00;;;1.70;;
5869;SDS011;2961;47.702;9.410;2022-11-24T03:06:42;2.30;;;1.40;;
5869;SDS011;2961;47.702;9.410;2022-11-24T03:09:09;2.80;;;1.30;;
5869;SDS011;2961;47.702;9.410;2022-11-24T03:11:36;14.27;;;2.20;;
5869;SDS011;2961;47.702;9.410;2022-11-24T03:14:03;5.13;;;1.77;;
5869;SDS011;2961;47.702;9.410;2022-11-24T03:16:30;3.60;;;1.60;;
5869;SDS011;2961;47.702;9.410;2022-11-24T03:18:59;4.87;;;1.83;;
5869;SDS011;2961;47.702;9.410;2022-11-24T03:21:26;3.90;;;1.50;;
5869;SDS011;2961;47.702;9.410;2022-11-24T03:23:53;5.73;;;1.60;;
5869;SDS011;2961;47.702;9.410;2022-11-24T03:26:21;5.00;;;1.20;;
5869;SDS011;2961;47.702;9.410;2022-11-24T03:28:51;7.67;;;1.90;;
5869;SDS011;2961;47.702;9.410;2022-11-24T03:31:18;3.13;;;1.23;;
5869;SDS011;2961;47.702;9.410;2022-11-24T03:33:45;3.13;;;1.70;;
5869;SDS011;2961;47.702;9.410;2022-11-24T03:36:13;6.67;;;1.80;;
5869;SDS011;2961;47.702;9.410;2022-11-24T03:38:40;4.93;;;1.50;;
5869;SDS011;2961;47.702;9.410;2022-11-24T03:41:07;6.60;;;2.10;;
5869;SDS011;2961;47.702;9.410;2022-11-24T03:43:34;4.27;;;1.53;;
5869;SDS011;2961;47.702;9.410;2022-11-24T03:46:01;5.20;;;1.30;;
5869;SDS011;2961;47.702;9.410;2022-11-24T03:48:28;3.13;;;1.63;;
5869;SDS011;2961;47.702;9.410;2022-11-24T03:50:55;5.73;;;1.80;;
5869;SDS011;2961;47.702;9.410;2022-11-24T03:53:25;4.57;;;1.70;;
5869;SDS011;2961;47.702;9.410;2022-11-24T03:55:53;11.10;;;1.90;;
5869;SDS011;2961;47.702;9.410;2022-11-24T03:58:20;3.43;;;2.17;;
5869;SDS011;2961;47.702;9.410;2022-11-24T04:00:48;14.83;;;2.00;;
5869;SDS011;2961;47.702;9.410;2022-11-24T04:03:15;5.93;;;2.00;;
5869;SDS011;2961;47.702;9.410;2022-11-24T04:05:43;3.53;;;1.47;;
5869;SDS011;2961;47.702;9.410;2022-11-24T04:08:10;4.90;;;1.40;;
5869;SDS011;2961;47.702;9.410;2022-11-24T04:10:38;5.80;;;1.43;;
5869;SDS011;2961;47.702;9.410;2022-11-24T04:13:09;6.33;;;1.80;;
5869;SDS011;2961;47.702;9.410;2022-11-24T04:15:36;4.77;;;1.30;;
5869;SDS011;2961;47.702;9.410;2022-11-24T04:18:04;7.93;;;1.57;;
5869;SDS011;2961;47.702;9.410;2022-11-24T04:20:31;9.47;;;2.23;;
5869;SDS011;2961;47.702;9.410;2022-11-24T04:22:58;16.57;;;1.50;;
5869;SDS011;2961;47.702;9.410;2022-11-24T04:25:25;9.03;;;2.20;;
5869;SDS011;2961;47.702;9.410;2022-11-24T04:27:54;7.60;;;1.77;;
5869;SDS011;2961;47.702;9.410;2022-11-24T04:30:22;8.93;;;1.67;;
5869;SDS011;2961;47.702;9.410;2022-11-24T04:32:50;5.57;;;1.10;;
5869;SDS011;2961;47.702;9.410;2022-11-24T04:35:17;5.40;;;1.17;;
5869;SDS011;2961;47.702;9.410;2022-11-24T04:37:44;2.93;;;1.40;;
5869;SDS011;2961;47.702;9.410;2022-11-24T04:40:11;5.73;;;1.37;;
5869;SDS011;2961;47.702;9.410;2022-11-24T04:42:38;4.50;;;1.23;;
5869;SDS011;2961;47.702;9.410;2022-11-24T04:45:07;3.97;;;1.20;;
5869;SDS011;2961;47.702;9.410;2022-11-24T04:47:34;6.90;;;1.70;;
5869;SDS011;2961;47.702;9.410;2022-11-24T04:50:00;3.10;;;1.43;;
5869;SDS011;2961;47.702;9.410;2022-11-24T04:52:28;4.90;;;1.50;;
5869;SDS011;2961;47.702;9.410;2022-11-24T04:54:56;7.20;;;1.40;;
5869;SDS011;2961;47.702;9.410;2022-11-24T04:57:23;6.73;;;1.50;;
5869;SDS011;2961;47.702;9.410;2022-11-24T04:59:51;2.70;;;0.93;;
5869;SDS011;2961;47.702;9.410;2022-11-24T05:02:20;8.20;;;1.57;;
5869;SDS011;2961;47.702;9.410;2022-11-24T05:04:48;7.17;;;1.27;;
5869;SDS011;2961;47.702;9.410;2022-11-24T05:07:16;2.80;;;1.07;;
5869;SDS011;2961;47.702;9.410;2022-11-24T05:09:44;3.13;;;1.43;;
5869;SDS011;2961;47.702;9.410;2022-11-24T05:12:28;3.13;;;1.60;;
5869;SDS011;2961;47.702;9.410;2022-11-24T05:14:56;6.67;;;1.53;;
5869;SDS011;2961;47.702;9.410;2022-11-24T05:17:27;5.23;;;1.63;;
5869;SDS011;2961;47.702;9.410;2022-11-24T05:19:54;3.83;;;1.40;;
5869;SDS011;2961;47.702;9.410;2022-11-24T05:22:22;5.47;;;1.40;;
5869;SDS011;2961;47.702;9.410;2022-11-24T05:24:49;5.20;;;0.93;;
5869;SDS011;2961;47.702;9.410;2022-11-24T05:27:16;1.80;;;1.13;;
5869;SDS011;2961;47.702;9.410;2022-11-24T05:29:43;3.33;;;1.20;;
5869;SDS011;2961;47.702;9.410;2022-11-24T05:32:09;9.73;;;1.40;;
5869;SDS011;2961;47.702;9.410;2022-11-24T05:34:37;1.77;;;1.10;;
5869;SDS011;2961;47.702;9.410;2022-11-24T05:37:04;5.47;;;0.90;;
5869;SDS011;2961;47.702;9.410;2022-11-24T05:39:32;2.70;;;1.40;;
5869;SDS011;2961;47.702;9.410;2022-11-24T05:42:00;4.43;;;1.77;;
5869;SDS011;2961;47.702;9.410;2022-11-24T05:44:48;7.13;;;1.13;;
5869;SDS011;2961;47.702;9.410;2022-11-24T05:47:15;2.63;;;1.30;;
5869;SDS011;2961;47.702;9.410;2022-11-24T05:49:43;6.43;;;1.20;;
5869;SDS011;2961;47.702;9.410;2022-11-24T05:52:10;2.63;;;1.13;;
5869;SDS011;2961;47.702;9.410;2022-11-24T05:54:37;9.10;;;1.33;;
5869;SDS011;2961;47.702;9.410;2022-11-24T05:57:04;5.40;;;1.20;;
5869;SDS011;2961;47.702;9.410;2022-11-24T05:59:31;2.87;;;1.00;;
5869;SDS011;2961;47.702;9.410;2022-11-24T06:01:58;1.73;;;1.10;;
5869;SDS011;2961;47.702;9.410;2022-11-24T06:04:25;5.73;;;1.43;;
5869;SDS011;2961;47.702;9.410;2022-11-24T06:06:53;6.10;;;1.33;;
5869;SDS011;2961;47.702;9.410;2022-11-24T06:09:20;4.10;;;1.23;;
5869;SDS011;2961;47.702;9.410;2022-11-24T06:11:46;3.80;;;1.23;;
5869;SDS011;2961;47.702;9.410;2022-11-24T06:14:13;6.93;;;2.13;;
5869;SDS011;2961;47.702;9.410;2022-11-24T06:16:40;6.88;;;3.10;;
5869;SDS011;2961;47.702;9.410;2022-11-24T06:19:07;10.63;;;3.20;;
5869;SDS011;2961;47.702;9.410;2022-11-24T06:21:34;8.98;;;3.30;;
5869;SDS011;2961;47.702;9.410;2022-11-24T06:24:09;5.90;;;1.97;;
5869;SDS011;2961;47.702;9.410;2022-11-24T06:26:35;3.63;;;1.60;;
5869;SDS011;2961;47.702;9.410;2022-11-24T06:29:05;4.03;;;1.60;;
5869;SDS011;2961;47.702;9.410;2022-11-24T06:31:32;2.60;;;1.30;;
5869;SDS011;2961;47.702;9.410;2022-11-24T06:33:59;12.47;;;1.80;;
5869;SDS011;2961;47.702;9.410;2022-11-24T06:36:26;1.60;;;1.50;;
5869;SDS011;2961;47.702;9.410;2022-11-24T06:38:53;2.43;;;0.90;;
5869;SDS011;2961;47.702;9.410;2022-11-24T06:41:21;1.30;;;1.17;;
5869;SDS011;2961;47.702;9.410;2022-11-24T06:43:48;8.80;;;1.30;;
5869;SDS011;2961;47.702;9.410;2022-11-24T06:46:15;3.40;;;1.30;;
5869;SDS011;2961;47.702;9.410;2022-11-24T06:48:41;4.97;;;2.27;;
5869;SDS011;2961;47.702;9.410;2022-11-24T06:51:09;7.33;;;5.27;;
5869;SDS011;2961;47.702;9.410;2022-11-24T06:53:38;11.23;;;5.13;;
5869;SDS011;2961;47.702;9.410;2022-11-24T06:56:06;11.60;;;6.57;;
5869;SDS011;2961;47.702;9.410;2022-11-24T06:58:37;20.60;;;8.70;;
5869;SDS011;2961;47.702;9.410;2022-11-24T07:01:06;17.53;;;9.00;;
5869;SDS011;2961;47.702;9.410;2022-11-24T07:03:32;9.97;;;3.20;;
5869;SDS011;2961;47.702;9.410;2022-11-24T07:05:59;9.13;;;2.10;;
5869;SDS011;2961;47.702;9.410;2022-11-24T07:08:26;3.93;;;1.37;;
5869;SDS011;2961;47.702;9.410;2022-11-24T07:10:53;6.70;;;2.00;;
5869;SDS011;2961;47.702;9.410;2022-11-24T07:13:20;2.00;;;1.03;;
5869;SDS011;2961;47.702;9.410;2022-11-24T07:15:48;7.90;;;1.90;;
5869;SDS011;2961;47.702;9.410;2022-11-24T07:18:15;4.57;;;1.50;;
5869;SDS011;2961;47.702;9.410;2022-11-24T07:20:41;4.07;;;2.30;;
5869;SDS011;2961;47.702;9.410;2022-11-24T07:23:08;17.70;;;8.63;;
5869;SDS011;2961;47.702;9.410;2022-11-24T07:25:35;16.30;;;8.90;;
5869;SDS011;2961;47.702;9.410;2022-11-24T07:28:02;25.70;;;8.63;;
5869;SDS011;2961;47.702;9.410;2022-11-24T07:30:29;18.10;;;7.93;;
5869;SDS011;2961;47.702;9.410;2022-11-24T07:32:58;18.73;;;9.10;;
5869;SDS011;2961;47.702;9.410;2022-11-24T07:35:25;18.27;;;8.13;;
5869;SDS011;2961;47.702;9.410;2022-11-24T07:37:53;8.47;;;3.87;;
5869;SDS011;2961;47.702;9.410;2022-11-24T07:40:20;8.40;;;3.80;;
5869;SDS011;2961;47.702;9.410;2022-11-24T07:42:47;8.50;;;2.80;;
5869;SDS011;2961;47.702;9.410;2022-11-24T07:45:14;16.73;;;6.37;;
5869;SDS011;2961;47.702;9.410;2022-11-24T07:47:41;10.10;;;2.57;;
5869;SDS011;2961;47.702;9.410;2022-11-24T07:50:09;3.90;;;2.60;;
5869;SDS011;2961;47.702;9.410;2022-11-24T07:52:37;17.80;;;4.23;;
5869;SDS011;2961;47.702;9.410;2022-11-24T07:55:04;7.27;;;3.57;;
5869;SDS011;2961;47.702;9.410;2022-11-24T07:57:32;4.47;;;2.57;;
5869;SDS011;2961;47.702;9.410;2022-11-24T07:59:58;8.43;;;3.40;;
5869;SDS011;2961;47.702;9.410;2022-11-24T08:02:25;12.57;;;5.63;;
5869;SDS011;2961;47.702;9.410;2022-11-24T08:04:52;12.60;;;5.93;;
5869;SDS011;2961;47.702;9.410;2022-11-24T08:07:20;16.47;;;3.03;;
5869;SDS011;2961;47.702;9.410;2022-11-24T08:09:47;5.80;;;1.60;;
5869;SDS011;2961;47.702;9.410;2022-11-24T08:12:16;6.53;;;1.50;;
5869;SDS011;2961;47.702;9.410;2022-11-24T08:14:45;4.23;;;2.20;;
5869;SDS011;2961;47.702;9.410;2022-11-24T08:17:13;3.07;;;1.40;;
5869;SDS011;2961;47.702;9.410;2022-11-24T08:19:40;9.13;;;4.90;;
5869;SDS011;2961;47.702;9.410;2022-11-24T08:22:06;10.77;;;3.97;;
5869;SDS011;2961;47.702;9.410;2022-11-24T08:24:35;20.83;;;8.50;;
5869;SDS011;2961;47.702;9.410;2022-11-24T08:27:02;16.50;;;6.20;;
5869;SDS011;2961;47.702;9.410;2022-11-24T08:29:29;7.27;;;3.17;;
5869;SDS011;2961;47.702;9.410;2022-11-24T08:31:56;7.53;;;1.63;;
5869;SDS011;2961;47.702;9.410;2022-11-24T08:34:23;10.37;;;2.00;;
5869;SDS011;2961;47.702;9.410;2022-11-24T08:36:50;11.33;;;2.43;;
5869;SDS011;2961;47.702;9.410;2022-11-24T08:39:17;8.37;;;3.60;;
5869;SDS011;2961;47.702;9.410;2022-11-24T08:41:45;15.13;;;5.80;;
5869;SDS011;2961;47.702;9.410;2022-11-24T08:44:12;12.13;;;4.43;;
5869;SDS011;2961;47.702;9.410;2022-11-24T08:46:42;15.63;;;3.37;;
5869;SDS011;2961;47.702;9.410;2022-11-24T08:49:09;15.57;;;4.40;;
5869;SDS011;2961;47.702;9.410;2022-11-24T08:51:37;15.80;;;4.93;;
5869;SDS011;2961;47.702;9.410;2022-11-24T08:54:04;11.80;;;3.70;;
5869;SDS011;2961;47.702;9.410;2022-11-24T08:56:31;11.40;;;2.80;;
5869;SDS011;2961;47.702;9.410;2022-11-24T08:59:00;5.03;;;2.57;;
5869;SDS011;2961;47.702;9.410;2022-11-24T09:01:27;8.10;;;2.50;;
5869;SDS011;2961;47.702;9.410;2022-11-24T09:03:54;8.13;;;2.07;;
5869;SDS011;2961;47.702;9.410;2022-11-24T09:06:23;4.73;;;2.00;;
5869;SDS011;2961;47.702;9.410;2022-11-24T09:08:52;10.47;;;2.20;;
5869;SDS011;2961;47.702;9.410;2022-11-24T09:11:19;9.37;;;2.17;;
5869;SDS011;2961;47.702;9.410;2022-11-24T09:13:47;10.00;;;2.50;;
5869;SDS011;2961;47.702;9.410;2022-11-24T09:16:16;7.70;;;2.80;;
5869;SDS011;2961;47.702;9.410;2022-11-24T09:18:44;12.33;;;1.80;;
5869;SDS011;2961;47.702;9.410;2022-11-24T09:21:13;11.60;;;2.43;;
5869;SDS011;2961;47.702;9.410;2022-11-24T09:23:41;20.60;;;3.20;;
5869;SDS011;2961;47.702;9.410;2022-11-24T09:26:08;5.43;;;1.20;;
5869;SDS011;2961;47.702;9.410;2022-11-24T09:28:37;8.10;;;2.70;;
5869;SDS011;2961;47.702;9.410;2022-11-24T09:31:04;8.63;;;2.80;;
5869;SDS011;2961;47.702;9.410;2022-11-24T09:33:34;9.47;;;2.47;;
5869;SDS011;2961;47.702;9.410;2022-11-24T09:36:02;8.40;;;2.83;;
5869;SDS011;2961;47.702;9.410;2022-11-24T09:38:29;7.40;;;1.63;;
5869;SDS011;2961;47.702;9.410;2022-11-24T09:41:02;7.43;;;2.40;;
5869;SDS011;2961;47.702;9.410;2022-11-24T09:43:47;19.87;;;3.57;;
5869;SDS011;2961;47.702;9.410;2022-11-24T09:46:22;14.47;;;2.40;;
5869;SDS011;2961;47.702;9.410;2022-11-24T09:48:58;9.60;;;2.73;;
5869;SDS011;2961;47.702;9.410;2022-11-24T09:51:27;7.37;;;2.07;;
5869;SDS011;2961;47.702;9.410;2022-11-24T09:53:58;17.73;;;7.07;;
5869;SDS011;2961;47.702;9.410;2022-11-24T09:56:32;13.70;;;4.00;;
5869;SDS011;2961;47.702;9.410;2022-11-24T09:59:01;8.75;;;2.60;;
5869;SDS011;2961;47.702;9.410;2022-11-24T10:01:35;11.53;;;3.80;;
5869;SDS011;2961;47.702;9.410;2022-11-24T10:04:11;8.80;;;2.23;;
5869;SDS011;2961;47.702;9.410;2022-11-24T10:06:43;11.87;;;2.90;;
5869;SDS011;2961;47.702;9.410;2022-11-24T10:12:08;13.90;;;3.60;;
5869;SDS011;2961;47.702;9.410;2022-11-24T10:14:57;14.83;;;2.90;;
5869;SDS011;2961;47.702;9.410;2022-11-24T10:17:36;7.33;;;2.47;;
5869;SDS011;2961;47.702;9.410;2022-11-24T10:20:17;9.10;;;2.07;;
5869;SDS011;2961;47.702;9.410;2022-11-24T10:22:48;5.60;;;1.67;;
5869;SDS011;2961;47.702;9.410;2022-11-24T10:25:22;7.57;;;1.80;;
5869;SDS011;2961;47.702;9.410;2022-11-24T10:27:53;8.23;;;2.23;;
5869;SDS011;2961;47.702;9.410;2022-11-24T10:30:26;6.70;;;2.30;;
5869;SDS011;2961;47.702;9.410;2022-11-24T10:32:54;14.93;;;2.37;;
5869;SDS011;2961;47.702;9.410;2022-11-24T10:35:25;7.50;;;2.00;;
5869;SDS011;2961;47.702;9.410;2022-11-24T10:38:01;6.40;;;1.77;;
5869;SDS011;2961;47.702;9.410;2022-11-24T10:40:37;5.10;;;1.77;;
5869;SDS011;2961;47.702;9.410;2022-11-24T10:43:07;5.90;;;1.37;;
5869;SDS011;2961;47.702;9.410;2022-11-24T10:45:35;4.93;;;1.50;;
5869;SDS011;2961;47.702;9.410;2022-11-24T10:48:11;4.40;;;1.50;;
5869;SDS011;2961;47.702;9.410;2022-11-24T10:50:45;4.47;;;1.33;;
5869;SDS011;2961;47.702;9.410;2022-11-24T10:53:13;6.50;;;1.40;;
5869;SDS011;2961;47.702;9.410;2022-11-24T10:55:56;5.37;;;1.33;;
5869;SDS011;2961;47.702;9.410;2022-11-24T10:58:24;5.63;;;1.53;;
5869;SDS011;2961;47.702;9.410;2022-11-24T11:00:53;14.37;;;2.23;;
5869;SDS011;2961;47.702;9.410;2022-11-24T11:03:21;3.40;;;1.30;;
5869;SDS011;2961;47.702;9.410;2022-11-24T11:05:51;5.33;;;1.20;;
5869;SDS011;2961;47.702;9.410;2022-11-24T11:08:20;2.33;;;1.07;;
5869;SDS011;2961;47.702;9.410;2022-11-24T11:10:50;4.43;;;1.43;;
5869;SDS011;2961;47.702;9.410;2022-11-24T11:13:36;3.67;;;0.90;;
5869;SDS011;2961;47.702;9.410;2022-11-24T11:16:12;4.50;;;1.00;;
5869;SDS011;2961;47.702;9.410;2022-11-24T11:18:49;4.97;;;1.40;;
5869;SDS011;2961;47.702;9.410;2022-11-24T11:21:25;6.50;;;1.47;;
5869;SDS011;2961;47.702;9.410;2022-11-24T11:23:53;7.17;;;2.30;;
5869;SDS011;2961;47.702;9.410;2022-11-24T11:26:27;5.47;;;1.50;;
5869;SDS011;2961;47.702;9.410;2022-11-24T11:28:58;9.60;;;1.33;;
5869;SDS011;2961;47.702;9.410;2022-11-24T11:31:27;2.47;;;1.47;;
5869;SDS011;2961;47.702;9.410;2022-11-24T11:33:59;16.70;;;1.80;;
5869;SDS011;2961;47.702;9.410;2022-11-24T11:36:29;4.20;;;1.50;;
5869;SDS011;2961;47.702;9.410;2022-11-24T11:38:58;4.57;;;1.37;;
5869;SDS011;2961;47.702;9.410;2022-11-24T11:41:27;5.80;;;1.70;;
5869;SDS011;2961;47.702;9.410;2022-11-24T11:44:00;4.80;;;1.30;;
5869;SDS011;2961;47.702;9.410;2022-11-24T11:46:37;6.13;;;1.80;;
5869;SDS011;2961;47.702;9.410;2022-11-24T11:49:03;5.00;;;1.50;;
5869;SDS011;2961;47.702;9.410;2022-11-24T11:51:38;3.50;;;1.20;;
5869;SDS011;2961;47.702;9.410;2022-11-24T11:54:20;3.50;;;1.70;;
5869;SDS011;2961;47.702;9.410;2022-11-24T11:57:01;6.30;;;1.50;;
5869;SDS011;2961;47.702;9.410;2022-11-24T11:59:39;12.27;;;1.70;;
5869;SDS011;2961;47.702;9.410;2022-11-24T12:05:17;6.20;;;1.47;;
5869;SDS011;2961;47.702;9.410;2022-11-24T12:08:00;2.20;;;1.40;;
5869;SDS011;2961;47.702;9.410;2022-11-24T12:10:39;3.13;;;1.50;;
5869;SDS011;2961;47.702;9.410;2022-11-24T12:13:22;3.90;;;1.47;;
5869;SDS011;2961;47.702;9.410;2022-11-24T12:16:19;8.77;;;2.20;;
5869;SDS011;2961;47.702;9.410;2022-11-24T12:18:58;10.37;;;2.00;;
5869;SDS011;2961;47.702;9.410;2022-11-24T12:21:39;4.47;;;1.50;;
5869;SDS011;2961;47.702;9.410;2022-11-24T12:24:16;6.67;;;1.33;;
5869;SDS011;2961;47.702;9.410;2022-11-24T12:26:48;4.03;;;1.20;;
5869;SDS011;2961;47.702;9.410;2022-11-24T12:29:24;3.40;;;1.30;;
5869;SDS011;2961;47.702;9.410;2022-11-24T12:32:27;4.90;;;1.60;;
5869;SDS011;2961;47.702;9.410;2022-11-24T12:35:10;3.17;;;1.80;;
5869;SDS011;2961;47.702;9.410;2022-11-24T12:37:48;6.70;;;1.83;;
5869;SDS011;2961;47.702;9.410;2022-11-24T12:40:25;5.40;;;1.50;;
5869;SDS011;2961;47.702;9.410;2022-11-24T12:43:04;7.60;;;1.60;;
5869;SDS011;2961;47.702;9.410;2022-11-24T12:45:38;3.03;;;1.07;;
5869;SDS011;2961;47.702;9.410;2022-11-24T12:48:28;9.73;;;2.00;;
5869;SDS011;2961;47.702;9.410;2022-11-24T12:51:04;3.43;;;1.63;;
5869;SDS011;2961;47.702;9.410;2022-11-24T12:53:39;3.90;;;1.13;;
5869;SDS011;2961;47.702;9.410;2022-11-24T12:56:22;2.97;;;1.10;;
5869;SDS011;2961;47.702;9.410;2022-11-24T12:58:55;6.57;;;1.53;;
5869;SDS011;2961;47.702;9.410;2022-11-24T13:01:42;4.33;;;1.50;;
5869;SDS011;2961;47.702;9.410;2022-11-24T13:04:17;4.07;;;1.13;;
5869;SDS011;2961;47.702;9.410;2022-11-24T13:06:56;4.80;;;1.10;;
5869;SDS011;2961;47.702;9.410;2022-11-24T13:09:27;5.93;;;1.53;;
5869;SDS011;2961;47.702;9.410;2022-11-24T13:12:03;7.77;;;1.33;;
5869;SDS011;2961;47.702;9.410;2022-11-24T13:14:35;9.63;;;1.90;;
5869;SDS011;2961;47.702;9.410;2022-11-24T13:17:03;5.40;;;1.10;;
5869;SDS011;2961;47.702;9.410;2022-11-24T13:19:49;5.90;;;1.90;;
5869;SDS011;2961;47.702;9.410;2022-11-24T13:22:17;6.30;;;1.20;;
5869;SDS011;2961;47.702;9.410;2022-11-24T13:25:02;7.73;;;1.23;;
5869;SDS011;2961;47.702;9.410;2022-11-24T13:27:40;3.13;;;1.57;;
5869;SDS011;2961;47.702;9.410;2022-11-24T13:38:59;4.60;;;1.23;;
5869;SDS011;2961;47.702;9.410;2022-11-24T13:44:44;4.83;;;1.17;;
5869;SDS011;2961;47.702;9.410;2022-11-24T13:50:08;3.20;;;1.20;;
5869;SDS011;2961;47.702;9.410;2022-11-24T13:52:41;3.77;;;1.43;;
5869;SDS011;2961;47.702;9.410;2022-11-24T13:55:20;7.17;;;0.93;;
5869;SDS011;2961;47.702;9.410;2022-11-24T13:57:50;4.93;;;2.57;;
5869;SDS011;2961;47.702;9.410;2022-11-24T14:00:21;5.20;;;1.37;;
5869;SDS011;2961;47.702;9.410;2022-11-24T14:02:49;3.13;;;1.20;;
5869;SDS011;2961;47.702;9.410;2022-11-24T14:05:18;5.60;;;1.03;;
5869;SDS011;2961;47.702;9.410;2022-11-24T14:07:48;3.90;;;1.27;;
5869;SDS011;2961;47.702;9.410;2022-11-24T14:10:17;3.63;;;1.50;;
5869;SDS011;2961;47.702;9.410;2022-11-24T14:12:50;5.30;;;1.30;;
5869;SDS011;2961;47.702;9.410;2022-11-24T14:15:59;5.17;;;1.20;;
5869;SDS011;2961;47.702;9.410;2022-11-24T14:18:27;6.10;;;1.33;;
5869;SDS011;2961;47.702;9.410;2022-11-24T14:20:55;4.20;;;1.33;;
5869;SDS011;2961;47.702;9.410;2022-11-24T14:23:22;6.87;;;1.27;;
5869;SDS011;2961;47.702;9.410;2022-11-24T14:25:49;6.50;;;1.73;;
5869;SDS011;2961;47.702;9.410;2022-11-24T14:28:18;12.73;;;2.00;;
5869;SDS011;2961;47.702;9.410;2022-11-24T14:30:48;6.00;;;1.40;;
5869;SDS011;2961;47.702;9.410;2022-11-24T14:33:18;2.13;;;1.63;;
5869;SDS011;2961;47.702;9.410;2022-11-24T14:35:46;7.60;;;1.60;;
5869;SDS011;2961;47.702;9.410;2022-11-24T14:38:15;7.23;;;1.50;;
5869;SDS011;2961;47.702;9.410;2022-11-24T14:40:43;5.50;;;1.80;;
5869;SDS011;2961;47.702;9.410;2022-11-24T14:43:15;9.93;;;1.40;;
5869;SDS011;2961;47.702;9.410;2022-11-24T14:45:48;6.97;;;1.40;;
5869;SDS011;2961;47.702;9.410;2022-11-24T14:48:16;10.73;;;1.10;;
5869;SDS011;2961;47.702;9.410;2022-11-24T14:50:48;2.53;;;1.30;;
5869;SDS011;2961;47.702;9.410;2022-11-24T14:53:22;4.47;;;1.73;;
5869;SDS011;2961;47.702;9.410;2022-11-24T14:58:32;7.93;;;1.23;;
5869;SDS011;2961;47.702;9.410;2022-11-24T15:01:06;4.87;;;1.33;;
5869;SDS011;2961;47.702;9.410;2022-11-24T15:03:36;12.40;;;2.27;;
5869;SDS011;2961;47.702;9.410;2022-11-24T15:06:03;4.40;;;1.27;;
5869;SDS011;2961;47.702;9.410;2022-11-24T15:08:32;5.37;;;1.60;;
5869;SDS011;2961;47.702;9.410;2022-11-24T15:11:07;7.20;;;1.80;;
5869;SDS011;2961;47.702;9.410;2022-11-24T15:13:35;4.33;;;1.80;;
5869;SDS011;2961;47.702;9.410;2022-11-24T15:16:04;10.03;;;1.83;;
5869;SDS011;2961;47.702;9.410;2022-11-24T15:18:38;4.07;;;2.07;;
5869;SDS011;2961;47.702;9.410;2022-11-24T15:21:07;10.30;;;2.17;;
5869;SDS011;2961;47.702;9.410;2022-11-24T15:23:34;13.50;;;2.27;;
5869;SDS011;2961;47.702;9.410;2022-11-24T15:26:23;7.73;;;1.73;;
5869;SDS011;2961;47.702;9.410;2022-11-24T15:28:50;5.33;;;2.30;;
5869;SDS011;2961;47.702;9.410;2022-11-24T15:31:16;11.60;;;2.67;;
5869;SDS011;2961;47.702;9.410;2022-11-24T15:33:44;8.60;;;3.30;;
5869;SDS011;2961;47.702;9.410;2022-11-24T15:36:11;9.27;;;2.53;;
5869;SDS011;2961;47.702;9.410;2022-11-24T15:38:40;5.13;;;2.77;;
5869;SDS011;2961;47.702;9.410;2022-11-24T15:41:12;7.17;;;2.97;;
5869;SDS011;2961;47.702;9.410;2022-11-24T15:43:43;6.97;;;2.33;;
5869;SDS011;2961;47.702;9.410;2022-11-24T15:46:10;14.83;;;4.23;;
5869;SDS011;2961;47.702;9.410;2022-11-24T15:48:37;21.20;;;3.33;;
5869;SDS011;2961;47.702;9.410;2022-11-24T15:51:06;8.43;;;3.30;;
5869;SDS011;2961;47.702;9.410;2022-11-24T15:53:40;6.63;;;3.17;;